Observation data for Saint Lawrence on 10/17/2020      Previous  Date  Next       Current Mesonet Observations  Soil Data  Daily Summary Page  Observations in Plain Language
KST1 170500Z 13007KT 10/M03 A3017 RMK A01 T00951032  RH  041%=      5-min Rain = 0
KST1 170505Z 13007KT 09/M03 A3017 RMK A01 T00931032  RH  042%=      5-min Rain = 0
KST1 170510Z 14007KT 09/M03 A3017 RMK A01 T00941032  RH  041%=      5-min Rain = 0
KST1 170515Z 14008KT 10/M03 A3017 RMK A01 T00971033  RH  040%=      5-min Rain = 0
KST1 170520Z 14008KT 10/M03 A3017 RMK A01 T01021032  RH  039%=      5-min Rain = 0
KST1 170525Z 14008KT 11/M03 A3017 RMK A01 T01061031  RH  038%=      5-min Rain = 0
KST1 170530Z 14008KT 11/M03 A3017 RMK A01 T01081029  RH  038%=      5-min Rain = 0
KST1 170535Z 14008KT 11/M03 A3017 RMK A01 T01101027  RH  039%=      5-min Rain = 0
KST1 170540Z 14008KT 11/M03 A3016 RMK A01 T01091026  RH  039%=      5-min Rain = 0
KST1 170545Z 14007KT 11/M03 A3016 RMK A01 T01071026  RH  040%=      5-min Rain = 0
KST1 170550Z 14008KT 11/M03 A3016 RMK A01 T01061025  RH  040%=      5-min Rain = 0
KST1 170555Z 14008KT 11/M03 A3016 RMK A01 T01051025  RH  041%=      5-min Rain = 0
KST1 170600Z 14007KT 10/M03 A3016 RMK A01 T01031025  RH  041%=      5-min Rain = 0
KST1 170605Z 13008KT 10/M03 A3015 RMK A01 T01021025  RH  041%=      5-min Rain = 0
KST1 170610Z 13007KT 10/M02 A3015 RMK A01 T01011024  RH  042%=      5-min Rain = 0
KST1 170615Z 13007KT 10/M02 A3015 RMK A01 T00991024  RH  043%=      5-min Rain = 0
KST1 170620Z 13007KT 10/M02 A3015 RMK A01 T00961024  RH  043%=      5-min Rain = 0
KST1 170625Z 13007KT 09/M03 A3014 RMK A01 T00941025  RH  044%=      5-min Rain = 0
KST1 170630Z 13007KT 09/M03 A3014 RMK A01 T00921025  RH  044%=      5-min Rain = 0
KST1 170635Z 13007KT 09/M03 A3014 RMK A01 T00911025  RH  044%=      5-min Rain = 0
KST1 170640Z 13008KT 09/M03 A3014 RMK A01 T00921025  RH  044%=      5-min Rain = 0
KST1 170645Z 14007KT 09/M02 A3013 RMK A01 T00931024  RH  044%=      5-min Rain = 0
KST1 170650Z 14008KT 09/M02 A3013 RMK A01 T00941023  RH  044%=      5-min Rain = 0
KST1 170655Z 13008KT 10/M02 A3013 RMK A01 T00961022  RH  044%=      5-min Rain = 0
KST1 170700Z 13008KT 10/M02 A3012 RMK A01 T00971021  RH  044%=      5-min Rain = 0
KST1 170705Z 14008KT 10/M02 A3012 RMK A01 T00981020  RH  044%=      5-min Rain = 0
KST1 170710Z 13008KT 10/M02 A3012 RMK A01 T00971019  RH  044%=      5-min Rain = 0
KST1 170715Z 13008KT 10/M02 A3012 RMK A01 T00981018  RH  045%=      5-min Rain = 0
KST1 170720Z 13008KT 10/M02 A3011 RMK A01 T00981018  RH  045%=      5-min Rain = 0
KST1 170725Z 14009KT 10/M02 A3011 RMK A01 T00981018  RH  045%=      5-min Rain = 0
KST1 170730Z 14009KT 10/M02 A3011 RMK A01 T00971017  RH  045%=      5-min Rain = 0
KST1 170735Z 14009KT 10/M02 A3011 RMK A01 T00981016  RH  045%=      5-min Rain = 0
KST1 170740Z 14008KT 10/M02 A3011 RMK A01 T00981015  RH  046%=      5-min Rain = 0
KST1 170745Z 15008KT 10/M01 A3011 RMK A01 T00981014  RH  046%=      5-min Rain = 0
KST1 170750Z 15008KT 10/M01 A3011 RMK A01 T00981012  RH  047%=      5-min Rain = 0
KST1 170755Z 15008KT 10/M01 A3011 RMK A01 T01001010  RH  047%=      5-min Rain = 0
KST1 170800Z 15008KT 10/M01 A3011 RMK A01 T01001009  RH  047%=      5-min Rain = 0
KST1 170805Z 16007KT 10/M01 A3011 RMK A01 T01021006  RH  047%=      5-min Rain = 0
KST1 170810Z 16008KT 10/M00 A301 RMK A01 T01031004  RH  048%=      5-min Rain = 0
KST1 170815Z 16009KT 11/00 A301 RMK A01 T01080000  RH  048%=      5-min Rain = 0
KST1 170820Z 16008KT 11/00 A301 RMK A01 T01100003  RH  048%=      5-min Rain = 0
KST1 170825Z 16009KT 11/01 A301 RMK A01 T01100005  RH  049%=      5-min Rain = 0
KST1 170830Z 16008KT 11/01 A301 RMK A01 T01110007  RH  049%=      5-min Rain = 0
KST1 170835Z 16007KT 11/01 A301 RMK A01 T01110010  RH  050%=      5-min Rain = 0
KST1 170840Z 16006KT 11/01 A301 RMK A01 T01110012  RH  051%=      5-min Rain = 0
KST1 170845Z 16007KT 11/01 A301 RMK A01 T01110014  RH  052%=      5-min Rain = 0
KST1 170850Z 16007KT 11/02 A301 RMK A01 T01110016  RH  053%=      5-min Rain = 0
KST1 170855Z 16007KT 11/02 A3009 RMK A01 T01110018  RH  053%=      5-min Rain = 0
KST1 170900Z 16007KT 11/02 A3009 RMK A01 T01100019  RH  054%=      5-min Rain = 0
KST1 170905Z 16006KT 11/02 A3009 RMK A01 T01100021  RH  055%=      5-min Rain = 0
KST1 170910Z 16006KT 11/02 A3009 RMK A01 T01100023  RH  056%=      5-min Rain = 0
KST1 170915Z 16006KT 11/03 A3009 RMK A01 T01090025  RH  057%=      5-min Rain = 0
KST1 170920Z 16006KT 11/03 A3009 RMK A01 T01090027  RH  057%=      5-min Rain = 0
KST1 170925Z 16006KT 11/03 A3009 RMK A01 T01090029  RH  058%=      5-min Rain = 0
KST1 170930Z 16007KT 11/03 A3008 RMK A01 T01090031  RH  059%=      5-min Rain = 0
KST1 170935Z 16007KT 11/03 A3008 RMK A01 T01080032  RH  060%=      5-min Rain = 0
KST1 170940Z 16008KT 11/04 A3008 RMK A01 T01090035  RH  061%=      5-min Rain = 0
KST1 170945Z 16008KT 11/04 A3008 RMK A01 T01130041  RH  062%=      5-min Rain = 0
KST1 170950Z 16008KT 12/04 A3008 RMK A01 T01150044  RH  062%=      5-min Rain = 0
KST1 170955Z 16008KT 12/05 A3008 RMK A01 T01170047  RH  063%=      5-min Rain = 0
KST1 171000Z 15008KT 12/05 A3008 RMK A01 T01170047  RH  063%=      5-min Rain = 0
KST1 171005Z 15007KT 11/05 A3008 RMK A01 T01140047  RH  064%=      5-min Rain = 0
KST1 171010Z 15008KT 11/05 A3008 RMK A01 T01140047  RH  064%=      5-min Rain = 0
KST1 171015Z 15009KT 11/05 A3008 RMK A01 T01120048  RH  065%=      5-min Rain = 0
KST1 171020Z 16009KT 11/05 A3008 RMK A01 T01140049  RH  065%=      5-min Rain = 0
KST1 171025Z 16011KT 12/05 A3007 RMK A01 T01160051  RH  065%=      5-min Rain = 0
KST1 171030Z 16011KT 12/05 A3007 RMK A01 T01170052  RH  065%=      5-min Rain = 0
KST1 171035Z 16010KT 12/05 A3007 RMK A01 T01170053  RH  066%=      5-min Rain = 0
KST1 171040Z 16009KT 12/05 A3007 RMK A01 T01170054  RH  066%=      5-min Rain = 0
KST1 171045Z 16009KT 12/05 A3007 RMK A01 T01160054  RH  067%=      5-min Rain = 0
KST1 171050Z 17009KT 12/06 A3007 RMK A01 T01160055  RH  067%=      5-min Rain = 0
KST1 171055Z 17009KT 12/06 A3007 RMK A01 T01150055  RH  067%=      5-min Rain = 0
KST1 171100Z 17010KT 12/06 A3007 RMK A01 T01150055  RH  068%=      5-min Rain = 0
KST1 171105Z 17009KT 11/06 A3008 RMK A01 T01140055  RH  068%=      5-min Rain = 0
KST1 171110Z 17009KT 11/06 A3007 RMK A01 T01140056  RH  069%=      5-min Rain = 0
KST1 171115Z 17009KT 11/06 A3007 RMK A01 T01130056  RH  069%=      5-min Rain = 0
KST1 171120Z 17009KT 11/06 A3007 RMK A01 T01120055  RH  069%=      5-min Rain = 0
KST1 171125Z 17009KT 11/06 A3007 RMK A01 T01120055  RH  069%=      5-min Rain = 0
KST1 171130Z 17009KT 11/06 A3007 RMK A01 T01120056  RH  069%=      5-min Rain = 0
KST1 171135Z 17010KT 11/06 A3007 RMK A01 T01120056  RH  069%=      5-min Rain = 0
KST1 171140Z 17010KT 11/06 A3007 RMK A01 T01130056  RH  069%=      5-min Rain = 0
KST1 171145Z 17009KT 11/06 A3007 RMK A01 T01130056  RH  069%=      5-min Rain = 0
KST1 171150Z 17009KT 11/06 A3007 RMK A01 T01130056  RH  069%=      5-min Rain = 0
KST1 171155Z 18009KT 11/06 A3007 RMK A01 T01130056  RH  069%=      5-min Rain = 0
KST1 171200Z 18008KT 11/06 A3007 RMK A01 T01120055  RH  069%=      5-min Rain = 0
KST1 171205Z 17009KT 11/06 A3007 RMK A01 T01110055  RH  069%=      5-min Rain = 0
KST1 171210Z 17009KT 11/05 A3007 RMK A01 T01100054  RH  069%=      5-min Rain = 0
KST1 171215Z 17008KT 11/05 A3007 RMK A01 T01090054  RH  070%=      5-min Rain = 0
KST1 171220Z 17008KT 11/05 A3007 RMK A01 T01080053  RH  070%=      5-min Rain = 0
KST1 171225Z 17009KT 11/05 A3007 RMK A01 T01070053  RH  070%=      5-min Rain = 0
KST1 171230Z 17009KT 11/05 A3006 RMK A01 T01070054  RH  071%=      5-min Rain = 0
KST1 171235Z 17009KT 11/05 A3006 RMK A01 T01060054  RH  071%=      5-min Rain = 0
KST1 171240Z 18009KT 11/05 A3006 RMK A01 T01060054  RH  071%=      5-min Rain = 0
KST1 171245Z 18009KT 11/05 A3006 RMK A01 T01050054  RH  072%=      5-min Rain = 0
KST1 171250Z 18009KT 11/05 A3006 RMK A01 T01050054  RH  072%=      5-min Rain = 0
KST1 171255Z 18008KT 10/06 A3006 RMK A01 T01040055  RH  072%=      5-min Rain = 0
KST1 171300Z 18007KT 10/06 A3006 RMK A01 T01040055  RH  073%=      5-min Rain = 0
KST1 171305Z 18007KT 10/06 A3006 RMK A01 T01030056  RH  073%=      5-min Rain = 0
KST1 171310Z 17008KT 10/06 A3006 RMK A01 T01040056  RH  073%=      5-min Rain = 0
KST1 171315Z 18008KT 11/06 A3006 RMK A01 T01050057  RH  073%=      5-min Rain = 0
KST1 171320Z 18008KT 11/06 A3006 RMK A01 T01060059  RH  074%=      5-min Rain = 0
KST1 171325Z 18009KT 11/06 A3006 RMK A01 T01080061  RH  074%=      5-min Rain = 0
KST1 171330Z 18009KT 11/06 A3006 RMK A01 T01100063  RH  074%=      5-min Rain = 0
KST1 171335Z 18009KT 11/07 A3006 RMK A01 T01120065  RH  074%=      5-min Rain = 0
KST1 171340Z 18009KT 11/07 A3006 RMK A01 T01140067  RH  074%=      5-min Rain = 0
KST1 171345Z 18010KT 12/07 A3006 RMK A01 T01170069  RH  074%=      5-min Rain = 0
KST1 171350Z 18011KT 12/07 A3006 RMK A01 T01200072  RH  073%=      5-min Rain = 0
KST1 171355Z 18010KT 12/07 A3007 RMK A01 T01220074  RH  073%=      5-min Rain = 0
KST1 171400Z 18011KT 13/08 A3007 RMK A01 T01260076  RH  073%=      5-min Rain = 0
KST1 171405Z 18012KT 13/08 A3007 RMK A01 T01280078  RH  073%=      5-min Rain = 0
KST1 171410Z 18014KT 13/08 A3007 RMK A01 T01300080  RH  073%=      5-min Rain = 0
KST1 171415Z 18015KT 13/08 A3007 RMK A01 T01320081  RH  073%=      5-min Rain = 0
KST1 171420Z 18015KT 14/08 A3007 RMK A01 T01350083  RH  072%=      5-min Rain = 0
KST1 171425Z 18015KT 14/08 A3007 RMK A01 T01380084  RH  071%=      5-min Rain = 0
KST1 171430Z 18015KT 14/09 A3007 RMK A01 T01410085  RH  070%=      5-min Rain = 0
KST1 171435Z 18016KT 14/09 A3007 RMK A01 T01430085  RH  069%=      5-min Rain = 0
KST1 171440Z 18016G21KT 15/09 A3007 RMK A01 T01460086  RH  068%=      5-min Rain = 0
KST1 171445Z 18016KT 15/09 A3007 RMK A01 T01480086  RH  068%=      5-min Rain = 0
KST1 171450Z 18016G22KT 15/09 A3007 RMK A01 T01510087  RH  067%=      5-min Rain = 0
KST1 171455Z 19016G21KT 15/09 A3007 RMK A01 T01530087  RH  066%=      5-min Rain = 0
KST1 171500Z 19017G24KT 16/09 A3007 RMK A01 T01550087  RH  065%=      5-min Rain = 0
KST1 171505Z 18018KT 16/09 A3007 RMK A01 T01580088  RH  064%=      5-min Rain = 0
KST1 171510Z 19017G23KT 16/09 A3007 RMK A01 T01580088  RH  064%=      5-min Rain = 0
KST1 171515Z 19017G22KT 16/09 A3007 RMK A01 T01620089  RH  063%=      5-min Rain = 0
KST1 171520Z 19017G22KT 16/09 A3007 RMK A01 T01640089  RH  062%=      5-min Rain = 0
KST1 171525Z 19017KT 17/09 A3007 RMK A01 T01690090  RH  061%=      5-min Rain = 0
KST1 171530Z 19018G24KT 17/09 A3007 RMK A01 T01710090  RH  060%=      5-min Rain = 0
KST1 171535Z 19020KT 17/09 A3007 RMK A01 T01730090  RH  059%=      5-min Rain = 0
KST1 171540Z 19018G24KT 18/09 A3008 RMK A01 T01750090  RH  058%=      5-min Rain = 0
KST1 171545Z 19019G24KT 18/09 A3008 RMK A01 T01780090  RH  057%=      5-min Rain = 0
KST1 171550Z 19020G25KT 18/09 A3007 RMK A01 T01810090  RH  056%=      5-min Rain = 0
KST1 171555Z 19018G23KT 18/09 A3007 RMK A01 T01830091  RH  056%=      5-min Rain = 0
KST1 171600Z 19018G23KT 19/09 A3007 RMK A01 T01850091  RH  055%=      5-min Rain = 0
KST1 171605Z 19019G25KT 19/09 A3007 RMK A01 T01870091  RH  055%=      5-min Rain = 0
KST1 171610Z 19018KT 19/09 A3007 RMK A01 T01910093  RH  054%=      5-min Rain = 0
KST1 171615Z 18020KT 19/09 A3007 RMK A01 T01940093  RH  053%=      5-min Rain = 0
KST1 171620Z 19018G24KT 20/09 A3007 RMK A01 T01950093  RH  053%=      5-min Rain = 0
KST1 171625Z 19018KT 20/09 A3007 RMK A01 T01990094  RH  051%=      5-min Rain = 0
KST1 171630Z 19019KT 20/09 A3006 RMK A01 T02020094  RH  051%=      5-min Rain = 0
KST1 171635Z 19017G23KT 21/10 A3006 RMK A01 T02080095  RH  049%=      5-min Rain = 0
KST1 171640Z 19018G23KT 21/10 A3006 RMK A01 T02110095  RH  048%=      5-min Rain = 0
KST1 171645Z 19017G23KT 21/09 A3006 RMK A01 T02100094  RH  048%=      5-min Rain = 0
KST1 171650Z 19018G23KT 22/09 A3006 RMK A01 T02150094  RH  047%=      5-min Rain = 0
KST1 171655Z 19018KT 22/09 A3006 RMK A01 T02170094  RH  046%=      5-min Rain = 0
KST1 171700Z 18017G22KT 22/10 A3006 RMK A01 T02190095  RH  046%=      5-min Rain = 0
KST1 171705Z 19016G21KT 22/10 A3006 RMK A01 T02230095  RH  045%=      5-min Rain = 0
KST1 171710Z 18017G22KT 23/10 A3006 RMK A01 T02250095  RH  044%=      5-min Rain = 0
KST1 171715Z 18016KT 23/10 A3005 RMK A01 T02290095  RH  043%=      5-min Rain = 0
KST1 171720Z 19016G21KT 23/09 A3005 RMK A01 T02310094  RH  043%=      5-min Rain = 0
KST1 171725Z 19015KT 24/09 A3005 RMK A01 T02350094  RH  041%=      5-min Rain = 0
KST1 171730Z 19015G21KT 24/10 A3005 RMK A01 T02370095  RH  041%=      5-min Rain = 0
KST1 171735Z 20015G20KT 24/09 A3005 RMK A01 T02380094  RH  041%=      5-min Rain = 0
KST1 171740Z 19015G21KT 25/10 A3005 RMK A01 T02450096  RH  039%=      5-min Rain = 0
KST1 171745Z 18015G21KT 25/10 A3004 RMK A01 T02460095  RH  039%=      5-min Rain = 0
KST1 171750Z 18015G20KT 25/10 A3004 RMK A01 T02480096  RH  039%=      5-min Rain = 0
KST1 171755Z 19015G22KT 25/09 A3003 RMK A01 T02510094  RH  038%=      5-min Rain = 0
KST1 171800Z 19015G21KT 25/09 A3003 RMK A01 T02520092  RH  037%=      5-min Rain = 0
KST1 171805Z 19015G21KT 25/09 A3003 RMK A01 T02530090  RH  036%=      5-min Rain = 0
KST1 171810Z 19015G21KT 26/09 A3003 RMK A01 T02570089  RH  035%=      5-min Rain = 0
KST1 171815Z 20016G22KT 26/09 A3002 RMK A01 T02590089  RH  035%=      5-min Rain = 0
KST1 171820Z 19017G23KT 26/09 A3002 RMK A01 T02570089  RH  035%=      5-min Rain = 0
KST1 171825Z 19015G22KT 26/09 A3002 RMK A01 T02630088  RH  034%=      5-min Rain = 0
KST1 171830Z 20016G21KT 26/09 A3002 RMK A01 T02630086  RH  033%=      5-min Rain = 0
KST1 171835Z 20014G20KT 27/09 A3002 RMK A01 T02670087  RH  033%=      5-min Rain = 0
KST1 171840Z 20015G21KT 27/09 A3001 RMK A01 T02660087  RH  033%=      5-min Rain = 0
KST1 171845Z 21015G20KT 27/09 A3001 RMK A01 T02670087  RH  032%=      5-min Rain = 0
KST1 171850Z 20015KT 27/09 A30 RMK A01 T02730086  RH  031%=      5-min Rain = 0
KST1 171855Z 20015G22KT 27/09 A30 RMK A01 T02730087  RH  031%=      5-min Rain = 0
KST1 171900Z 22017G22KT 28/09 A2999 RMK A01 T02750086  RH  031%=      5-min Rain = 0
KST1 171905Z 20013G18KT 27/09 A2999 RMK A01 T02740086  RH  031%=      5-min Rain = 0
KST1 171910Z 19015G21KT 28/09 A2999 RMK A01 T02760087  RH  031%=      5-min Rain = 0
KST1 171915Z 19014G20KT 28/09 A2998 RMK A01 T02790088  RH  031%=      5-min Rain = 0
KST1 171920Z 20013G20KT 28/09 A2998 RMK A01 T02820086  RH  030%=      5-min Rain = 0
KST1 171925Z 20014G20KT 28/09 A2998 RMK A01 T02840087  RH  030%=      5-min Rain = 0
KST1 171930Z 21013KT 29/08 A2997 RMK A01 T02860084  RH  029%=      5-min Rain = 0
KST1 171935Z 21014G19KT 29/08 A2997 RMK A01 T02860083  RH  029%=      5-min Rain = 0
KST1 171940Z 20014G19KT 28/08 A2997 RMK A01 T02830083  RH  029%=      5-min Rain = 0
KST1 171945Z 20013G19KT 29/09 A2996 RMK A01 T02860086  RH  029%=      5-min Rain = 0
KST1 171950Z 20011G17KT 29/08 A2996 RMK A01 T02880084  RH  028%=      5-min Rain = 0
KST1 171955Z 20013KT 29/09 A2996 RMK A01 T02890085  RH  028%=      5-min Rain = 0
KST1 172000Z 21013KT 29/08 A2995 RMK A01 T02910084  RH  028%=      5-min Rain = 0
KST1 172005Z 20014KT 29/08 A2995 RMK A01 T02930084  RH  028%=      5-min Rain = 0
KST1 172010Z 19014G20KT 29/09 A2995 RMK A01 T02910085  RH  028%=      5-min Rain = 0
KST1 172015Z 20014G19KT 29/08 A2995 RMK A01 T02900084  RH  028%=      5-min Rain = 0
KST1 172020Z 20012G17KT 29/09 A2994 RMK A01 T02920087  RH  028%=      5-min Rain = 0
KST1 172025Z 20013G18KT 29/09 A2994 RMK A01 T02930085  RH  028%=      5-min Rain = 0
KST1 172030Z 19014G20KT 29/08 A2994 RMK A01 T02930084  RH  027%=      5-min Rain = 0
KST1 172035Z 21014G20KT 30/08 A2994 RMK A01 T02960080  RH  026%=      5-min Rain = 0
KST1 172040Z 21016G22KT 30/08 A2994 RMK A01 T02970077  RH  025%=      5-min Rain = 0
KST1 172045Z 22013G20KT 30/08 A2994 RMK A01 T02990078  RH  025%=      5-min Rain = 0
KST1 172050Z 21015G21KT 30/08 A2993 RMK A01 T03020077  RH  025%=      5-min Rain = 0
KST1 172055Z 22012KT 30/08 A2993 RMK A01 T03010075  RH  025%=      5-min Rain = 0
KST1 172100Z 21013G19KT 30/08 A2993 RMK A01 T03030077  RH  025%=      5-min Rain = 0
KST1 172105Z 21013G18KT 31/08 A2993 RMK A01 T03050076  RH  024%=      5-min Rain = 0
KST1 172110Z 21013KT 30/08 A2992 RMK A01 T03020075  RH  025%=      5-min Rain = 0
KST1 172115Z 21013G19KT 30/08 A2992 RMK A01 T03020075  RH  025%=      5-min Rain = 0
KST1 172120Z 21012KT 31/08 A2992 RMK A01 T03060075  RH  024%=      5-min Rain = 0
KST1 172125Z 22015G20KT 31/08 A2992 RMK A01 T03050075  RH  024%=      5-min Rain = 0
KST1 172130Z 21013G18KT 31/08 A2992 RMK A01 T03060077  RH  024%=      5-min Rain = 0
KST1 172135Z 21015G20KT 31/08 A2991 RMK A01 T03060076  RH  024%=      5-min Rain = 0
KST1 172140Z 21011G20KT 31/08 A2991 RMK A01 T03050075  RH  024%=      5-min Rain = 0
KST1 172145Z 21014KT 31/08 A2991 RMK A01 T03060076  RH  024%=      5-min Rain = 0
KST1 172150Z 20014G20KT 31/08 A2991 RMK A01 T03050078  RH  024%=      5-min Rain = 0
KST1 172155Z 22014G19KT 31/08 A2991 RMK A01 T03060077  RH  024%=      5-min Rain = 0
KST1 172200Z 20014G22KT 31/08 A2991 RMK A01 T03090078  RH  024%=      5-min Rain = 0
KST1 172205Z 20014KT 31/08 A299 RMK A01 T03070078  RH  024%=      5-min Rain = 0
KST1 172210Z 19013G18KT 31/08 A299 RMK A01 T03060078  RH  024%=      5-min Rain = 0
KST1 172215Z 20014G19KT 30/08 A299 RMK A01 T03040080  RH  025%=      5-min Rain = 0
KST1 172220Z 19014G19KT 30/08 A299 RMK A01 T03010083  RH  026%=      5-min Rain = 0
KST1 172225Z 19014KT 30/08 A299 RMK A01 T03000083  RH  026%=      5-min Rain = 0
KST1 172230Z 20014KT 30/08 A299 RMK A01 T03000084  RH  026%=      5-min Rain = 0
KST1 172235Z 19014G19KT 30/08 A299 RMK A01 T02990084  RH  026%=      5-min Rain = 0
KST1 172240Z 19014G20KT 30/09 A299 RMK A01 T02990085  RH  027%=      5-min Rain = 0
KST1 172245Z 19014G20KT 30/09 A299 RMK A01 T02980087  RH  027%=      5-min Rain = 0
KST1 172250Z 18014KT 30/09 A299 RMK A01 T02970090  RH  028%=      5-min Rain = 0
KST1 172255Z 19014KT 29/09 A299 RMK A01 T02940089  RH  028%=      5-min Rain = 0
KST1 172300Z 18015KT 29/09 A299 RMK A01 T02920088  RH  028%=      5-min Rain = 0
KST1 172305Z 18015KT 29/09 A299 RMK A01 T02930089  RH  028%=      5-min Rain = 0
KST1 172310Z 18016KT 29/09 A299 RMK A01 T02890091  RH  029%=      5-min Rain = 0
KST1 172315Z 18015G20KT 29/09 A299 RMK A01 T02870092  RH  030%=      5-min Rain = 0
KST1 172320Z 19016G21KT 29/09 A299 RMK A01 T02850092  RH  030%=      5-min Rain = 0
KST1 172325Z 18015G20KT 28/09 A299 RMK A01 T02830093  RH  031%=      5-min Rain = 0
KST1 172330Z 18016G21KT 28/09 A299 RMK A01 T02810093  RH  031%=      5-min Rain = 0
KST1 172335Z 18017KT 28/09 A299 RMK A01 T02790093  RH  032%=      5-min Rain = 0
KST1 172340Z 18014KT 28/09 A299 RMK A01 T02770093  RH  032%=      5-min Rain = 0
KST1 172345Z 18014KT 28/09 A299 RMK A01 T02760093  RH  032%=      5-min Rain = 0
KST1 172350Z 18014KT 27/09 A299 RMK A01 T02730093  RH  033%=      5-min Rain = 0
KST1 172355Z 18015KT 27/09 A299 RMK A01 T02700094  RH  034%=      5-min Rain = 0
KST1 180000Z 18013G18KT 27/09 A299 RMK A01 T02680094  RH  034%=      5-min Rain = 0
KST1 180005Z 18012KT 26/09 A299 RMK A01 T02640094  RH  035%=      5-min Rain = 0
KST1 180010Z 18012KT 26/09 A299 RMK A01 T02620094  RH  035%=      5-min Rain = 0
KST1 180015Z 18013KT 26/09 A299 RMK A01 T02600094  RH  036%=      5-min Rain = 0
KST1 180020Z 18013KT 26/10 A299 RMK A01 T02570095  RH  037%=      5-min Rain = 0
KST1 180025Z 18012KT 25/10 A299 RMK A01 T02540096  RH  037%=      5-min Rain = 0
KST1 180030Z 18012KT 25/10 A2991 RMK A01 T02520096  RH  038%=      5-min Rain = 0
KST1 180035Z 18012KT 25/10 A2991 RMK A01 T02510096  RH  038%=      5-min Rain = 0
KST1 180040Z 18013KT 25/10 A2991 RMK A01 T02490097  RH  039%=      5-min Rain = 0
KST1 180045Z 17011KT 25/10 A2991 RMK A01 T02450097  RH  040%=      5-min Rain = 0
KST1 180050Z 17012KT 24/10 A2991 RMK A01 T02410097  RH  041%=      5-min Rain = 0
KST1 180055Z 17012KT 24/10 A2991 RMK A01 T02390097  RH  041%=      5-min Rain = 0
KST1 180100Z 18013KT 24/10 A2991 RMK A01 T02390099  RH  042%=      5-min Rain = 0
KST1 180105Z 18015KT 24/10 A2991 RMK A01 T02390101  RH  042%=      5-min Rain = 0
KST1 180110Z 18015KT 24/10 A2991 RMK A01 T02380102  RH  043%=      5-min Rain = 0
KST1 180115Z 17014G19KT 24/10 A2991 RMK A01 T02370102  RH  043%=      5-min Rain = 0
KST1 180120Z 17014G19KT 24/10 A2991 RMK A01 T02350102  RH  044%=      5-min Rain = 0
KST1 180125Z 17014KT 23/10 A2991 RMK A01 T02330102  RH  044%=      5-min Rain = 0
KST1 180130Z 18014KT 23/10 A2991 RMK A01 T02320102  RH  045%=      5-min Rain = 0
KST1 180135Z 18012KT 23/10 A2991 RMK A01 T02290101  RH  045%=      5-min Rain = 0
KST1 180140Z 17011KT 23/10 A2992 RMK A01 T02260101  RH  046%=      5-min Rain = 0
KST1 180145Z 17012KT 23/10 A2992 RMK A01 T02260102  RH  046%=      5-min Rain = 0
KST1 180150Z 17014KT 23/10 A2992 RMK A01 T02260104  RH  047%=      5-min Rain = 0
KST1 180155Z 17014KT 22/11 A2992 RMK A01 T02240105  RH  048%=      5-min Rain = 0
KST1 180200Z 17014KT 22/11 A2992 RMK A01 T02230106  RH  048%=      5-min Rain = 0
KST1 180205Z 17015KT 22/11 A2992 RMK A01 T02230106  RH  049%=      5-min Rain = 0
KST1 180210Z 17014KT 22/11 A2992 RMK A01 T02220107  RH  049%=      5-min Rain = 0
KST1 180215Z 17014KT 22/11 A2992 RMK A01 T02210107  RH  049%=      5-min Rain = 0
KST1 180220Z 17013KT 22/11 A2992 RMK A01 T02180107  RH  050%=      5-min Rain = 0
KST1 180225Z 17013KT 22/11 A2992 RMK A01 T02160106  RH  051%=      5-min Rain = 0
KST1 180230Z 17014KT 22/11 A2992 RMK A01 T02160107  RH  051%=      5-min Rain = 0
KST1 180235Z 17015G21KT 22/11 A2992 RMK A01 T02150108  RH  051%=      5-min Rain = 0
KST1 180240Z 18015G20KT 22/11 A2992 RMK A01 T02150109  RH  052%=      5-min Rain = 0
KST1 180245Z 18014KT 22/11 A2992 RMK A01 T02150110  RH  052%=      5-min Rain = 0
KST1 180250Z 18014KT 21/11 A2992 RMK A01 T02130110  RH  053%=      5-min Rain = 0
KST1 180255Z 18014KT 21/11 A2992 RMK A01 T02120111  RH  053%=      5-min Rain = 0
KST1 180300Z 17014G20KT 21/11 A2992 RMK A01 T02120112  RH  054%=      5-min Rain = 0
KST1 180305Z 18014G19KT 21/11 A2992 RMK A01 T02110112  RH  054%=      5-min Rain = 0
KST1 180310Z 18013KT 21/11 A2992 RMK A01 T02100113  RH  055%=      5-min Rain = 0
KST1 180315Z 18014KT 21/11 A2992 RMK A01 T02100113  RH  055%=      5-min Rain = 0
KST1 180320Z 17014KT 21/11 A2992 RMK A01 T02080113  RH  055%=      5-min Rain = 0
KST1 180325Z 18013KT 21/11 A2992 RMK A01 T02070113  RH  056%=      5-min Rain = 0
KST1 180330Z 17013KT 21/11 A2992 RMK A01 T02070114  RH  056%=      5-min Rain = 0
KST1 180335Z 18012KT 21/11 A2993 RMK A01 T02060114  RH  056%=      5-min Rain = 0
KST1 180340Z 18012KT 21/11 A2993 RMK A01 T02050114  RH  057%=      5-min Rain = 0
KST1 180345Z 17012KT 20/11 A2993 RMK A01 T02040113  RH  057%=      5-min Rain = 0
KST1 180350Z 17013KT 20/11 A2993 RMK A01 T02040114  RH  058%=      5-min Rain = 0
KST1 180355Z 18013KT 20/12 A2993 RMK A01 T02030115  RH  058%=      5-min Rain = 0
KST1 180400Z 18013G18KT 20/12 A2993 RMK A01 T02040115  RH  058%=      5-min Rain = 0
KST1 180405Z 18014KT 20/12 A2993 RMK A01 T02030116  RH  058%=      5-min Rain = 0
KST1 180410Z 18014G19KT 20/12 A2993 RMK A01 T02030116  RH  059%=      5-min Rain = 0
KST1 180415Z 18015G20KT 20/12 A2992 RMK A01 T02030117  RH  059%=      5-min Rain = 0
KST1 180420Z 18014KT 20/12 A2992 RMK A01 T02020118  RH  059%=      5-min Rain = 0
KST1 180425Z 18014KT 20/12 A2992 RMK A01 T02020118  RH  060%=      5-min Rain = 0
KST1 180430Z 18014KT 20/12 A2992 RMK A01 T02020118  RH  060%=      5-min Rain = 0
KST1 180435Z 19013G18KT 20/12 A2992 RMK A01 T02020119  RH  060%=      5-min Rain = 0
KST1 180440Z 18013KT 20/12 A2993 RMK A01 T02020119  RH  060%=      5-min Rain = 0
KST1 180445Z 18013KT 20/12 A2993 RMK A01 T02010120  RH  061%=      5-min Rain = 0
KST1 180450Z 19013KT 20/12 A2993 RMK A01 T02020120  RH  061%=      5-min Rain = 0
KST1 180455Z 19014KT 20/12 A2993 RMK A01 T02020121  RH  061%=      5-min Rain = 0

Page generated in 0.0385 seconds.